createdAt,value
2018-05-24T00:00:04.359Z,38.85
2018-05-24T00:02:34.424Z,38.86
2018-05-24T00:05:03.960Z,38.83
2018-05-24T00:07:33.363Z,38.82
2018-05-24T00:10:02.899Z,38.78
2018-05-24T00:12:32.427Z,38.77
2018-05-24T00:15:01.703Z,38.78
2018-05-24T00:17:30.790Z,38.82
2018-05-24T00:19:59.769Z,38.83
2018-05-24T00:22:28.628Z,38.82
2018-05-24T00:24:58.401Z,38.81
2018-05-24T00:27:27.572Z,38.75
2018-05-24T00:29:56.342Z,38.73
2018-05-24T00:32:25.824Z,38.74
2018-05-24T00:34:55.347Z,38.75
2018-05-24T00:37:25.183Z,38.78
2018-05-24T00:39:54.132Z,38.78
2018-05-24T00:42:24.339Z,38.79
2018-05-24T00:44:53.277Z,38.78
2018-05-24T00:47:22.216Z,38.81
2018-05-24T00:49:51.059Z,38.84
2018-05-24T00:52:20.984Z,38.78
2018-05-24T00:54:50.674Z,38.75
2018-05-24T00:57:20.053Z,38.80
2018-05-24T00:59:49.523Z,38.81
2018-05-24T01:02:19.043Z,38.81
2018-05-24T01:04:48.793Z,38.77
2018-05-24T01:07:17.856Z,38.71
2018-05-24T01:09:46.704Z,38.72
2018-05-24T01:12:16.283Z,38.76
2018-05-24T01:14:45.706Z,38.73
2018-05-24T01:17:16.053Z,38.74
2018-05-24T01:19:45.639Z,38.71
2018-05-24T01:22:15.597Z,38.70
2018-05-24T01:24:45.366Z,38.68
2018-05-24T01:27:15.026Z,38.67
2018-05-24T01:29:44.030Z,38.65
2018-05-24T01:32:13.425Z,38.66
2018-05-24T01:34:42.857Z,38.69
2018-05-24T01:37:23.933Z,38.70
2018-05-24T01:39:52.961Z,38.74
2018-05-24T01:42:22.426Z,38.73
2018-05-24T01:44:51.316Z,38.71
2018-05-24T01:47:20.313Z,38.73
2018-05-24T01:49:50.260Z,38.74
2018-05-24T01:52:19.108Z,38.78
2018-05-24T01:54:48.451Z,38.77
2018-05-24T01:57:18.529Z,38.76
2018-05-24T01:59:47.597Z,38.73
2018-05-24T02:02:17.804Z,38.73
2018-05-24T02:04:47.324Z,38.68
2018-05-24T02:07:16.374Z,38.74
2018-05-24T02:09:45.885Z,38.68
2018-05-24T02:12:14.859Z,38.72
2018-05-24T02:14:44.470Z,38.71
2018-05-24T02:17:13.728Z,38.67
2018-05-24T02:19:43.997Z,38.70
2018-05-24T02:22:13.329Z,38.70
2018-05-24T02:24:42.563Z,38.71
2018-05-24T02:27:11.751Z,38.69
2018-05-24T02:29:40.839Z,38.72
2018-05-24T02:32:10.216Z,38.73
2018-05-24T02:34:38.881Z,38.75
2018-05-24T02:37:08.510Z,38.73
2018-05-24T02:39:38.021Z,38.75
2018-05-24T02:42:08.225Z,38.78
2018-05-24T02:44:37.421Z,38.77
2018-05-24T02:47:06.707Z,38.75
2018-05-24T02:49:36.768Z,38.73
2018-05-24T02:52:05.703Z,38.71
2018-05-24T02:54:35.454Z,38.69
2018-05-24T02:57:05.234Z,38.68
2018-05-24T02:59:34.478Z,38.68
2018-05-24T03:02:04.408Z,38.67
2018-05-24T03:04:33.334Z,38.61
2018-05-24T03:07:02.637Z,38.62
2018-05-24T03:09:31.934Z,38.60
2018-05-24T03:12:00.745Z,38.61
2018-05-24T03:14:30.352Z,38.62
2018-05-24T03:17:00.279Z,38.65
2018-05-24T03:19:29.657Z,38.64
2018-05-24T03:21:59.260Z,38.66
2018-05-24T03:24:28.848Z,38.66
2018-05-24T03:26:58.424Z,38.65
2018-05-24T03:29:27.829Z,38.67
2018-05-24T03:31:56.749Z,38.68
2018-05-24T03:34:26.044Z,38.69
2018-05-24T03:36:55.571Z,38.68
2018-05-24T03:39:25.365Z,38.66
2018-05-24T03:41:55.243Z,38.65
2018-05-24T03:44:25.303Z,38.63
2018-05-24T03:46:55.505Z,38.61
2018-05-24T03:49:25.077Z,38.61
2018-05-24T03:51:54.706Z,38.61
2018-05-24T03:54:24.367Z,38.68
2018-05-24T03:56:54.145Z,38.67
2018-05-24T04:02:54.032Z,38.67
2018-05-24T04:05:23.342Z,38.68
2018-05-24T04:07:52.972Z,38.71
2018-05-24T04:10:21.649Z,38.71
2018-05-24T04:12:51.273Z,38.74
2018-05-24T04:15:20.410Z,38.70
2018-05-24T04:17:49.309Z,38.71
2018-05-24T04:20:19.282Z,38.69
2018-05-24T04:22:48.167Z,38.70
2018-05-24T04:25:17.361Z,38.70
2018-05-24T04:27:46.909Z,38.70
2018-05-24T04:30:16.634Z,38.71
2018-05-24T04:32:45.968Z,38.70
2018-05-24T04:35:16.086Z,38.69
2018-05-24T04:37:45.059Z,38.70
2018-05-24T04:40:14.497Z,38.67
2018-05-24T04:42:43.857Z,38.67
2018-05-24T04:45:12.709Z,38.66
2018-05-24T04:47:42.360Z,38.64
2018-05-24T04:50:11.712Z,38.69
2018-05-24T04:52:41.032Z,38.71
2018-05-24T04:55:11.134Z,38.68
2018-05-24T04:57:39.928Z,38.73
2018-05-24T05:00:08.791Z,38.77
2018-05-24T05:02:38.455Z,38.75
2018-05-24T05:05:13.818Z,38.82
2018-05-24T05:07:43.131Z,38.85
2018-05-24T05:10:13.048Z,38.82
2018-05-24T05:12:41.501Z,38.83
2018-05-24T05:15:11.225Z,38.85
2018-05-24T05:17:39.779Z,38.85
2018-05-24T05:20:10.062Z,38.85
2018-05-24T05:22:39.641Z,38.85
2018-05-24T05:25:08.545Z,38.90
2018-05-24T05:27:38.297Z,38.92
2018-05-24T05:30:07.882Z,38.92
2018-05-24T05:32:38.075Z,38.91
2018-05-24T05:35:07.997Z,38.91
2018-05-24T05:37:37.737Z,38.82
2018-05-24T05:40:07.060Z,38.83
2018-05-24T05:42:36.424Z,38.85
2018-05-24T05:45:05.799Z,38.90
2018-05-24T05:47:35.608Z,38.90
2018-05-24T05:50:05.292Z,38.96
2018-05-24T05:52:34.369Z,39.00
2018-05-24T05:55:03.711Z,39.01
2018-05-24T05:57:33.129Z,38.99
2018-05-24T06:00:02.672Z,38.99
2018-05-24T06:02:32.520Z,39.04
2018-05-24T06:05:02.343Z,39.00
2018-05-24T06:07:32.192Z,38.99
2018-05-24T06:10:01.144Z,39.00
2018-05-24T06:12:30.670Z,38.98
2018-05-24T06:14:59.575Z,38.91
2018-05-24T06:17:28.691Z,38.88
2018-05-24T06:19:57.714Z,38.90
2018-05-24T06:22:27.217Z,38.89
2018-05-24T06:24:56.502Z,38.92
2018-05-24T06:27:27.507Z,38.88
2018-05-24T06:29:57.400Z,38.90
2018-05-24T06:32:27.201Z,38.92
2018-05-24T06:34:56.344Z,38.96
2018-05-24T06:37:26.526Z,38.96
2018-05-24T06:39:55.880Z,38.99
2018-05-24T06:42:25.839Z,39.02
2018-05-24T06:44:55.776Z,39.03
2018-05-24T06:47:24.668Z,39.01
2018-05-24T06:49:54.144Z,39.04
2018-05-24T06:52:27.340Z,39.02
2018-05-24T06:54:56.271Z,39.01
2018-05-24T06:57:25.811Z,39.00
2018-05-24T06:59:55.505Z,39.02
2018-05-24T07:02:24.663Z,39.04
2018-05-24T07:04:54.266Z,39.05
2018-05-24T07:07:23.749Z,39.07
2018-05-24T07:09:52.862Z,39.02
2018-05-24T07:12:22.589Z,39.01
2018-05-24T07:14:52.029Z,39.01
2018-05-24T07:17:22.034Z,39.02
2018-05-24T07:19:52.335Z,39.09
2018-05-24T07:22:22.031Z,39.10
2018-05-24T07:24:51.405Z,39.08
2018-05-24T07:27:20.446Z,39.10
2018-05-24T07:29:50.029Z,39.14
2018-05-24T07:32:19.282Z,39.14
2018-05-24T07:34:49.602Z,39.20
2018-05-24T07:37:19.378Z,39.24
2018-05-24T07:39:49.286Z,39.26
2018-05-24T07:42:19.200Z,39.25
2018-05-24T07:44:48.497Z,39.28
2018-05-24T07:47:18.446Z,39.26
2018-05-24T07:49:48.794Z,39.17
2018-05-24T07:52:17.885Z,39.13
2018-05-24T07:54:47.333Z,39.13
2018-05-24T07:57:16.290Z,39.11
2018-05-24T07:59:45.157Z,39.13
2018-05-24T08:02:14.563Z,39.14
2018-05-24T08:04:44.256Z,39.18
2018-05-24T08:07:13.750Z,39.19
2018-05-24T08:09:42.982Z,39.22
2018-05-24T08:12:12.420Z,39.23
2018-05-24T08:14:41.991Z,39.17
2018-05-24T08:17:11.286Z,39.22
2018-05-24T08:19:41.099Z,39.26
2018-05-24T08:22:11.025Z,39.28
2018-05-24T08:24:40.268Z,39.30
2018-05-24T08:27:09.764Z,39.29
2018-05-24T08:29:38.620Z,39.25
2018-05-24T08:32:08.126Z,39.28
2018-05-24T08:34:37.406Z,39.28
2018-05-24T08:37:06.416Z,39.29
2018-05-24T08:39:35.948Z,39.28
2018-05-24T08:42:05.771Z,39.18
2018-05-24T08:44:34.400Z,39.21
2018-05-24T08:47:03.713Z,39.18
2018-05-24T08:49:33.285Z,39.21
2018-05-24T08:52:05.184Z,39.22
2018-05-24T08:54:34.560Z,39.24
2018-05-24T08:57:03.799Z,39.24
2018-05-24T08:59:33.181Z,39.24
2018-05-24T09:02:03.322Z,39.26
2018-05-24T09:04:32.189Z,39.34
2018-05-24T09:07:01.674Z,39.38
2018-05-24T09:09:31.356Z,39.33
2018-05-24T09:12:00.564Z,39.28
2018-05-24T09:14:29.675Z,39.27
2018-05-24T09:16:59.139Z,39.34
2018-05-24T09:19:28.635Z,39.39
2018-05-24T09:21:58.457Z,39.42
2018-05-24T09:24:28.941Z,39.41
2018-05-24T09:26:59.273Z,39.43
2018-05-24T09:29:28.407Z,39.44
2018-05-24T09:31:58.271Z,39.48
2018-05-24T09:34:28.066Z,39.44
2018-05-24T09:36:58.205Z,39.45
2018-05-24T09:39:27.229Z,39.45
2018-05-24T09:41:55.551Z,39.37
2018-05-24T09:44:24.783Z,39.39
2018-05-24T09:46:53.633Z,39.43
2018-05-24T09:49:22.892Z,39.36
2018-05-24T09:51:51.959Z,39.41
2018-05-24T09:54:21.284Z,39.48
2018-05-24T09:56:51.030Z,39.54
2018-05-24T09:59:20.562Z,39.49
2018-05-24T10:01:50.324Z,39.49
2018-05-24T10:04:21.732Z,39.50
2018-05-24T10:06:50.658Z,39.53
2018-05-24T10:09:19.848Z,39.58
2018-05-24T10:11:49.305Z,39.64
2018-05-24T10:14:18.616Z,39.69
2018-05-24T10:16:49.949Z,39.68
2018-05-24T10:19:19.674Z,39.67
2018-05-24T10:21:49.265Z,39.65
2018-05-24T10:24:18.313Z,39.70
2018-05-24T10:26:47.874Z,39.73
2018-05-24T10:29:18.161Z,39.72
2018-05-24T10:31:47.333Z,39.70
2018-05-24T10:34:16.549Z,39.71
2018-05-24T10:36:45.627Z,39.72
2018-05-24T10:39:15.049Z,39.75
2018-05-24T10:41:44.853Z,39.77
2018-05-24T10:44:14.255Z,39.78
2018-05-24T10:46:44.020Z,39.78
2018-05-24T10:49:14.072Z,39.79
2018-05-24T10:51:43.976Z,39.74
2018-05-24T10:54:13.910Z,39.78
2018-05-24T10:56:43.894Z,39.76
2018-05-24T10:59:13.284Z,39.79
2018-05-24T11:01:43.213Z,39.76
2018-05-24T11:04:12.454Z,39.78
2018-05-24T11:06:41.479Z,39.76
2018-05-24T11:09:10.479Z,39.77
2018-05-24T11:11:39.827Z,39.78
2018-05-24T11:14:09.214Z,39.81
2018-05-24T11:16:38.805Z,39.77
2018-05-24T11:19:07.759Z,39.77
2018-05-24T11:21:37.342Z,39.79
2018-05-24T11:24:06.412Z,39.82
2018-05-24T11:26:35.224Z,39.83
2018-05-24T11:29:04.903Z,39.86
2018-05-24T11:31:34.729Z,39.83
2018-05-24T11:34:04.107Z,39.86
2018-05-24T11:36:33.688Z,39.84
2018-05-24T11:39:03.329Z,39.81
2018-05-24T11:41:32.343Z,39.89
2018-05-24T11:44:01.615Z,39.90
2018-05-24T11:46:31.567Z,39.89
2018-05-24T11:49:01.009Z,39.87
2018-05-24T11:51:30.354Z,39.87
2018-05-24T11:53:59.522Z,39.89
2018-05-24T11:56:29.059Z,39.88
2018-05-24T11:58:58.346Z,39.89
2018-05-24T12:01:27.473Z,39.91
2018-05-24T12:03:56.433Z,39.91
2018-05-24T12:06:25.847Z,39.87
2018-05-24T12:08:54.782Z,39.91
2018-05-24T12:11:23.560Z,39.90
2018-05-24T12:13:53.200Z,39.93
2018-05-24T12:16:22.883Z,39.96
2018-05-24T12:18:52.044Z,39.95
2018-05-24T12:21:21.658Z,39.92
2018-05-24T12:23:51.385Z,39.95
2018-05-24T12:26:20.132Z,39.92
2018-05-24T12:28:49.481Z,39.92
2018-05-24T12:31:18.958Z,39.89
2018-05-24T12:33:48.756Z,39.89
2018-05-24T12:36:17.768Z,39.90
2018-05-24T12:38:47.533Z,39.92
2018-05-24T12:41:17.308Z,39.94
2018-05-24T12:43:46.145Z,39.92
2018-05-24T12:46:15.186Z,39.92
2018-05-24T12:48:44.340Z,39.91
2018-05-24T12:51:13.896Z,39.91
2018-05-24T12:53:43.234Z,39.89
2018-05-24T12:56:12.729Z,39.91
2018-05-24T12:58:41.909Z,39.91
2018-05-24T13:01:11.375Z,39.89
2018-05-24T13:03:40.661Z,39.92
2018-05-24T13:06:10.463Z,39.89
2018-05-24T13:08:39.719Z,39.89
2018-05-24T13:11:08.724Z,39.89
2018-05-24T13:13:38.008Z,39.88
2018-05-24T13:16:07.569Z,39.88
2018-05-24T13:18:37.169Z,39.87
2018-05-24T13:21:07.607Z,39.87
2018-05-24T13:23:36.961Z,39.89
2018-05-24T13:26:06.104Z,39.91
2018-05-24T13:28:35.654Z,39.93
2018-05-24T13:31:05.663Z,39.95
2018-05-24T13:33:35.160Z,39.98
2018-05-24T13:36:05.107Z,40.00
2018-05-24T13:38:34.425Z,40.02
2018-05-24T13:41:03.754Z,40.02
2018-05-24T13:43:33.018Z,40.03
2018-05-24T13:46:02.352Z,40.05
2018-05-24T13:48:31.610Z,40.06
2018-05-24T13:51:01.063Z,40.05
2018-05-24T13:53:30.759Z,40.07
2018-05-24T13:56:00.751Z,40.09
2018-05-24T13:58:30.563Z,40.08
2018-05-24T14:01:00.061Z,40.08
2018-05-24T14:03:29.434Z,40.09
2018-05-24T14:05:58.566Z,40.09
2018-05-24T14:08:28.344Z,40.10
2018-05-24T14:10:57.515Z,40.10
2018-05-24T14:13:26.339Z,40.11
2018-05-24T14:15:55.838Z,40.10
2018-05-24T14:18:24.843Z,40.12
2018-05-24T14:20:54.577Z,40.12
2018-05-24T14:23:24.618Z,40.12
2018-05-24T14:25:54.125Z,40.11
2018-05-24T14:28:23.204Z,40.10
2018-05-24T14:30:52.650Z,40.11
2018-05-24T14:33:21.994Z,40.10
2018-05-24T14:35:50.946Z,40.08
2018-05-24T14:38:20.394Z,40.12
2018-05-24T14:40:50.026Z,40.10
2018-05-24T14:43:18.822Z,40.08
2018-05-24T14:45:48.243Z,40.08
2018-05-24T14:48:17.761Z,40.07
2018-05-24T14:50:47.866Z,40.07
2018-05-24T14:53:16.492Z,40.08
2018-05-24T14:55:45.955Z,40.07
2018-05-24T14:58:14.774Z,40.09
2018-05-24T15:00:44.212Z,40.08
2018-05-24T15:03:13.327Z,40.08
2018-05-24T15:05:42.480Z,40.10
2018-05-24T15:08:11.808Z,40.10
2018-05-24T15:10:41.634Z,40.09
2018-05-24T15:13:14.841Z,40.10
2018-05-24T15:15:44.189Z,40.11
2018-05-24T15:18:13.916Z,40.12
2018-05-24T15:20:43.250Z,40.08
2018-05-24T15:23:12.918Z,40.07
2018-05-24T15:25:42.981Z,40.06
2018-05-24T15:28:12.398Z,40.05
2018-05-24T15:30:41.772Z,40.05
2018-05-24T15:33:10.713Z,40.04
2018-05-24T15:35:45.501Z,40.02
2018-05-24T15:38:17.445Z,40.00
2018-05-24T15:40:51.049Z,40.00
2018-05-24T15:43:20.651Z,40.00
2018-05-24T15:45:52.900Z,40.02
2018-05-24T15:48:22.775Z,40.03
2018-05-24T15:50:56.459Z,40.04
2018-05-24T15:53:26.911Z,40.03
2018-05-24T15:56:01.897Z,40.04
2018-05-24T15:58:35.590Z,40.05
2018-05-24T16:01:11.565Z,40.05
2018-05-24T16:03:41.053Z,40.06
2018-05-24T16:06:12.517Z,40.07
2018-05-24T16:08:46.194Z,40.05
2018-05-24T16:11:15.656Z,40.05
2018-05-24T16:13:50.756Z,40.06
2018-05-24T16:16:19.936Z,40.02
2018-05-24T16:18:48.944Z,40.00
2018-05-24T16:21:18.615Z,39.98
2018-05-24T16:23:52.699Z,39.96
2018-05-24T16:26:22.499Z,39.97
2018-05-24T16:28:55.536Z,39.95
2018-05-24T16:31:27.784Z,39.92
2018-05-24T16:33:59.748Z,39.91
2018-05-24T16:36:32.245Z,39.93
2018-05-24T16:39:07.506Z,39.93
2018-05-24T16:41:40.607Z,39.94
2018-05-24T16:44:09.759Z,39.97
2018-05-24T16:46:38.739Z,39.94
2018-05-24T16:49:07.883Z,39.94
2018-05-24T16:51:37.351Z,39.93
2018-05-24T16:54:06.364Z,39.94
2018-05-24T16:56:40.627Z,39.96
2018-05-24T16:59:10.371Z,39.97
2018-05-24T17:01:39.897Z,39.97
2018-05-24T17:04:09.343Z,39.96
2018-05-24T17:06:38.382Z,39.99
2018-05-24T17:09:07.462Z,39.99
2018-05-24T17:11:36.628Z,39.96
2018-05-24T17:14:06.413Z,39.95
2018-05-24T17:16:35.604Z,39.94
2018-05-24T17:19:04.840Z,39.95
2018-05-24T17:21:34.410Z,39.92
2018-05-24T17:24:03.734Z,39.91
2018-05-24T17:26:33.574Z,39.88
2018-05-24T17:29:03.127Z,39.89
2018-05-24T17:31:32.220Z,39.90
2018-05-24T17:34:01.370Z,39.91
2018-05-24T17:36:30.241Z,39.91
2018-05-24T17:38:59.821Z,39.90
2018-05-24T17:41:29.375Z,39.92
2018-05-24T17:43:59.096Z,39.93
2018-05-24T17:46:28.823Z,39.92
2018-05-24T17:48:58.260Z,39.92
2018-05-24T17:51:27.371Z,39.92
2018-05-24T17:53:56.204Z,39.91
2018-05-24T17:56:25.405Z,39.93
2018-05-24T17:58:54.453Z,39.91
2018-05-24T18:01:23.920Z,39.90
2018-05-24T18:03:53.519Z,39.90
2018-05-24T18:06:22.652Z,39.89
2018-05-24T18:08:52.342Z,39.86
2018-05-24T18:11:21.842Z,39.83
2018-05-24T18:13:51.136Z,39.83
2018-05-24T18:16:20.501Z,39.82
2018-05-24T18:18:49.311Z,39.81
2018-05-24T18:21:18.798Z,39.80
2018-05-24T18:23:48.435Z,39.80
2018-05-24T18:26:18.197Z,39.80
2018-05-24T18:28:46.959Z,39.81
2018-05-24T18:31:16.582Z,39.82
2018-05-24T18:33:46.355Z,39.83
2018-05-24T18:36:16.304Z,39.81
2018-05-24T18:38:45.967Z,39.82
2018-05-24T18:41:15.657Z,39.83
2018-05-24T18:43:45.068Z,39.84
2018-05-24T18:46:14.656Z,39.84
2018-05-24T18:48:43.884Z,39.83
2018-05-24T18:51:13.703Z,39.84
2018-05-24T18:53:42.718Z,39.84
2018-05-24T18:56:11.648Z,39.81
2018-05-24T18:58:40.607Z,39.79
2018-05-24T19:01:09.575Z,39.79
2018-05-24T19:03:38.296Z,39.77
2018-05-24T19:06:07.630Z,39.76
2018-05-24T19:08:36.875Z,39.74
2018-05-24T19:11:06.281Z,39.71
2018-05-24T19:13:35.110Z,39.71
2018-05-24T19:16:04.323Z,39.73
2018-05-24T19:18:33.897Z,39.72
2018-05-24T19:21:02.832Z,39.74
2018-05-24T19:23:32.163Z,39.73
2018-05-24T19:26:01.674Z,39.75
2018-05-24T19:28:31.224Z,39.73
2018-05-24T19:31:00.682Z,39.73
2018-05-24T19:36:03.375Z,39.73
2018-05-24T19:38:32.823Z,39.73
2018-05-24T19:41:02.733Z,39.74
2018-05-24T19:43:31.999Z,39.72
2018-05-24T19:46:00.854Z,39.74
2018-05-24T19:48:30.067Z,39.71
2018-05-24T19:50:59.589Z,39.69
2018-05-24T19:53:29.160Z,39.68
2018-05-24T19:55:58.639Z,39.66
2018-05-24T19:58:28.062Z,39.65
2018-05-24T20:00:57.724Z,39.63
2018-05-24T20:03:26.541Z,39.63
2018-05-24T20:05:56.132Z,39.61
2018-05-24T20:08:24.632Z,39.62
2018-05-24T20:10:54.298Z,39.63
2018-05-24T20:13:24.186Z,39.63
2018-05-24T20:15:53.828Z,39.63
2018-05-24T20:18:22.483Z,39.63
2018-05-24T20:20:51.913Z,39.64
2018-05-24T20:23:21.589Z,39.65
2018-05-24T20:25:50.725Z,39.65
2018-05-24T20:28:20.005Z,39.63
2018-05-24T20:30:49.962Z,39.64
2018-05-24T20:33:19.074Z,39.64
2018-05-24T20:35:48.099Z,39.63
2018-05-24T20:38:17.085Z,39.62
2018-05-24T20:40:46.281Z,39.61
2018-05-24T20:43:15.178Z,39.59
2018-05-24T20:45:44.632Z,39.57
2018-05-24T20:48:14.489Z,39.55
2018-05-24T20:50:43.594Z,39.54
2018-05-24T20:53:12.695Z,39.52
2018-05-24T20:55:42.039Z,39.50
2018-05-24T20:58:11.129Z,39.49
2018-05-24T21:00:41.136Z,39.50
2018-05-24T21:03:10.936Z,39.53
2018-05-24T21:05:39.976Z,39.52
2018-05-24T21:08:08.952Z,39.52
2018-05-24T21:10:38.153Z,39.52
2018-05-24T21:13:07.580Z,39.53
2018-05-24T21:15:37.196Z,39.55
2018-05-24T21:18:06.740Z,39.54
2018-05-24T21:20:36.422Z,39.53
2018-05-24T21:23:05.452Z,39.52
2018-05-24T21:25:35.084Z,39.53
2018-05-24T21:28:04.436Z,39.51
2018-05-24T21:30:33.202Z,39.53
2018-05-24T21:33:02.067Z,39.50
2018-05-24T21:35:31.261Z,39.50
2018-05-24T21:38:01.219Z,39.46
2018-05-24T21:40:30.458Z,39.45
2018-05-24T21:42:59.665Z,39.43
2018-05-24T21:45:28.748Z,39.42
2018-05-24T21:47:57.427Z,39.40
2018-05-24T21:50:26.712Z,39.42
2018-05-24T21:52:55.788Z,39.41
2018-05-24T21:55:25.619Z,39.44
2018-05-24T21:57:55.676Z,39.41
2018-05-24T22:00:24.640Z,39.39
2018-05-24T22:02:53.516Z,39.42
2018-05-24T22:05:22.624Z,39.41
2018-05-24T22:07:52.323Z,39.43
2018-05-24T22:10:21.701Z,39.41
2018-05-24T22:12:51.137Z,39.36
2018-05-24T22:15:20.893Z,39.35
2018-05-24T22:17:49.757Z,39.36
2018-05-24T22:20:19.139Z,39.37
2018-05-24T22:22:49.356Z,39.35
2018-05-24T22:25:18.365Z,39.34
2018-05-24T22:27:47.103Z,39.37
2018-05-24T22:30:16.436Z,39.31
2018-05-24T22:32:45.307Z,39.31
2018-05-24T22:35:14.602Z,39.27
2018-05-24T22:37:43.405Z,39.26
2018-05-24T22:40:13.079Z,39.23
2018-05-24T22:42:42.895Z,39.26
2018-05-24T22:45:12.214Z,39.22
2018-05-24T22:47:41.834Z,39.24
2018-05-24T22:50:10.977Z,39.21
2018-05-24T22:52:40.175Z,39.19
2018-05-24T22:55:09.588Z,39.20
2018-05-24T22:57:38.478Z,39.14
2018-05-24T23:00:07.482Z,39.11
2018-05-24T23:02:37.595Z,39.10
2018-05-24T23:05:07.765Z,39.11
2018-05-24T23:07:37.508Z,39.11
2018-05-24T23:10:06.936Z,39.08
2018-05-24T23:12:36.214Z,39.07
2018-05-24T23:15:05.075Z,39.04
2018-05-24T23:22:41.150Z,39.08
2018-05-24T23:27:44.049Z,39.09
2018-05-24T23:30:19.289Z,39.10
2018-05-24T23:32:48.332Z,39.08
2018-05-24T23:35:18.445Z,39.08
2018-05-24T23:37:47.868Z,39.08
2018-05-24T23:40:16.946Z,39.07
2018-05-24T23:42:45.928Z,39.08
2018-05-24T23:45:15.971Z,39.08
2018-05-24T23:47:45.212Z,39.08
2018-05-24T23:50:14.252Z,39.05
2018-05-24T23:52:43.480Z,39.02
2018-05-24T23:55:12.378Z,39.03
2018-05-24T23:57:41.643Z,39.02
